createdAt,value
2022-10-22T00:01:58.673Z,97831.00
2022-10-22T00:04:35.633Z,97827.00
2022-10-22T00:07:10.796Z,97833.00
2022-10-22T00:09:46.538Z,97825.00
2022-10-22T00:12:21.812Z,97820.00
2022-10-22T00:14:57.545Z,97802.00
2022-10-22T00:17:32.759Z,97798.00
2022-10-22T00:20:08.468Z,97802.00
2022-10-22T00:22:43.369Z,97812.00
2022-10-22T00:25:18.635Z,97803.00
2022-10-22T00:27:53.550Z,97809.00
2022-10-22T00:30:28.670Z,97801.00
2022-10-22T00:33:03.720Z,97808.00
2022-10-22T00:35:38.760Z,97813.00
2022-10-22T00:38:13.765Z,97827.00
2022-10-22T00:40:48.938Z,97827.00
2022-10-22T00:43:23.918Z,97828.00
2022-10-22T00:45:58.791Z,97823.00
2022-10-22T00:48:34.117Z,97822.00
2022-10-22T00:51:09.739Z,97825.00
2022-10-22T00:53:50.717Z,97820.00
2022-10-22T00:56:25.895Z,97821.00
2022-10-22T00:59:02.361Z,97809.00
2022-10-22T01:01:37.225Z,97806.00
2022-10-22T01:04:12.635Z,97799.00
2022-10-22T01:06:48.198Z,97801.00
2022-10-22T01:09:37.712Z,97800.00
2022-10-22T01:12:32.061Z,97797.00
2022-10-22T01:15:51.637Z,97774.00
2022-10-22T01:19:05.029Z,97787.00
2022-10-22T01:21:46.177Z,97784.00
2022-10-22T01:24:35.517Z,97748.00
2022-10-22T01:27:30.664Z,97744.00
2022-10-22T01:30:10.039Z,97756.00
2022-10-22T01:32:52.096Z,97769.00
2022-10-22T01:35:37.988Z,97759.00
2022-10-22T01:38:20.449Z,97785.00
2022-10-22T01:40:56.720Z,97805.00
2022-10-22T01:43:32.698Z,97812.00
2022-10-22T01:46:10.271Z,97805.00
2022-10-22T01:49:33.829Z,97808.00
2022-10-22T01:52:40.484Z,97803.00
2022-10-22T01:55:30.985Z,97803.00
2022-10-22T01:58:26.919Z,97807.00
2022-10-22T02:01:41.760Z,97808.00
2022-10-22T02:04:57.110Z,97815.00
2022-10-22T02:07:40.959Z,97815.00
2022-10-22T02:10:18.532Z,97815.00
2022-10-22T02:12:56.447Z,97829.00
2022-10-22T02:15:32.931Z,97842.00
2022-10-22T02:18:09.724Z,97841.00
2022-10-22T02:20:44.606Z,97835.00
2022-10-22T02:23:21.638Z,97820.00
2022-10-22T02:26:07.227Z,97814.00
2022-10-22T02:29:20.240Z,97830.00
2022-10-22T02:31:57.704Z,97820.00
2022-10-22T02:34:33.319Z,97826.00
2022-10-22T02:37:09.392Z,97824.00
2022-10-22T02:39:45.119Z,97835.00
2022-10-22T02:42:20.101Z,97829.00
2022-10-22T02:44:55.005Z,97827.00
2022-10-22T02:47:30.327Z,97832.00
2022-10-22T02:50:09.528Z,97822.00
2022-10-22T02:52:45.356Z,97830.00
2022-10-22T02:55:20.409Z,97824.00
2022-10-22T02:57:55.385Z,97828.00
2022-10-22T03:00:30.495Z,97831.00
2022-10-22T03:03:05.732Z,97826.00
2022-10-22T03:05:41.076Z,97820.00
2022-10-22T03:08:15.987Z,97812.00
2022-10-22T03:10:51.002Z,97805.00
2022-10-22T03:13:25.951Z,97810.00
2022-10-22T03:16:00.955Z,97801.00
2022-10-22T03:18:36.077Z,97802.00
2022-10-22T03:21:21.163Z,97807.00
2022-10-22T03:23:56.802Z,97800.00
2022-10-22T03:26:32.688Z,97793.00
2022-10-22T03:29:08.685Z,97796.00
2022-10-22T03:31:43.829Z,97800.00
2022-10-22T03:34:18.712Z,97800.00
2022-10-22T03:36:54.672Z,97799.00
2022-10-22T03:39:32.695Z,97797.00
2022-10-22T03:42:08.245Z,97791.00
2022-10-22T03:44:43.771Z,97791.00
2022-10-22T03:47:18.926Z,97783.00
2022-10-22T03:49:53.860Z,97776.00
2022-10-22T03:52:28.861Z,97787.00
2022-10-22T03:55:05.617Z,97794.00
2022-10-22T03:57:40.817Z,97812.00
2022-10-22T04:00:16.571Z,97811.00
2022-10-22T04:02:51.523Z,97812.00
2022-10-22T04:05:26.562Z,97805.00
2022-10-22T04:08:02.041Z,97799.00
2022-10-22T04:10:37.144Z,97801.00
2022-10-22T04:13:12.799Z,97806.00
2022-10-22T04:15:47.906Z,97828.00
2022-10-22T04:18:23.795Z,97850.00
2022-10-22T04:20:58.753Z,97842.00
2022-10-22T04:23:33.750Z,97843.00
2022-10-22T04:26:08.645Z,97840.00
2022-10-22T04:28:43.770Z,97827.00
2022-10-22T04:31:22.526Z,97834.00
2022-10-22T04:34:00.087Z,97807.00
2022-10-22T04:36:35.130Z,97824.00
2022-10-22T04:39:10.074Z,97820.00
2022-10-22T04:41:45.018Z,97814.00
2022-10-22T04:44:19.950Z,97818.00
2022-10-22T04:46:55.087Z,97828.00
2022-10-22T04:49:30.044Z,97826.00
2022-10-22T04:52:05.101Z,97832.00
2022-10-22T04:54:40.311Z,97839.00
2022-10-22T04:57:15.208Z,97834.00
2022-10-22T04:59:50.155Z,97839.00
2022-10-22T05:02:25.157Z,97836.00
2022-10-22T05:05:00.194Z,97836.00
2022-10-22T05:07:35.185Z,97842.00
2022-10-22T05:10:10.349Z,97847.00
2022-10-22T05:12:45.336Z,97844.00
2022-10-22T05:15:20.225Z,97854.00
2022-10-22T05:17:55.225Z,97852.00
2022-10-22T05:20:30.138Z,97856.00
2022-10-22T05:23:05.063Z,97852.00
2022-10-22T05:25:40.041Z,97856.00
2022-10-22T05:28:15.125Z,97861.00
2022-10-22T05:30:55.261Z,97863.00
2022-10-22T05:33:32.445Z,97872.00
2022-10-22T05:36:09.614Z,97872.00
2022-10-22T05:38:45.063Z,97875.00
2022-10-22T05:41:23.586Z,97894.00
2022-10-22T05:44:00.402Z,97898.00
2022-10-22T05:46:36.224Z,97895.00
2022-10-22T05:49:16.436Z,97922.00
2022-10-22T05:51:51.336Z,97919.00
2022-10-22T05:54:26.277Z,97928.00
2022-10-22T05:57:01.222Z,97930.00
2022-10-22T05:59:36.270Z,97940.00
2022-10-22T06:02:12.701Z,97946.00
2022-10-22T06:04:48.143Z,97947.00
2022-10-22T06:07:23.170Z,97941.00
2022-10-22T06:09:58.920Z,97944.00
2022-10-22T06:12:33.910Z,97956.00
2022-10-22T06:15:12.813Z,97952.00
2022-10-22T06:17:48.509Z,97958.00
2022-10-22T06:20:23.459Z,97964.00
2022-10-22T06:22:58.686Z,97976.00
2022-10-22T06:25:33.676Z,97979.00
2022-10-22T06:28:08.607Z,97975.00
2022-10-22T06:30:45.886Z,97972.00
2022-10-22T06:33:21.677Z,97983.00
2022-10-22T06:36:07.875Z,97991.00
2022-10-22T06:38:43.820Z,97997.00
2022-10-22T06:41:18.945Z,97999.00
2022-10-22T06:43:54.347Z,98006.00
2022-10-22T06:46:29.982Z,98008.00
2022-10-22T06:49:05.773Z,98013.00
2022-10-22T06:51:40.910Z,98007.00
2022-10-22T06:54:15.883Z,98010.00
2022-10-22T06:56:50.919Z,98018.00
2022-10-22T06:59:25.883Z,98023.00
2022-10-22T07:02:00.884Z,98030.00
2022-10-22T07:04:36.419Z,98034.00
2022-10-22T07:07:11.392Z,98047.00
2022-10-22T07:09:50.580Z,98046.00
2022-10-22T07:12:26.761Z,98047.00
2022-10-22T07:15:01.796Z,98054.00
2022-10-22T07:17:36.885Z,98059.00
2022-10-22T07:20:12.651Z,98057.00
2022-10-22T07:22:47.553Z,98065.00
2022-10-22T07:25:22.532Z,98063.00
2022-10-22T07:27:57.539Z,98065.00
2022-10-22T07:30:32.572Z,98058.00
2022-10-22T07:33:07.603Z,98062.00
2022-10-22T07:35:43.118Z,98072.00
2022-10-22T07:38:18.057Z,98074.00
2022-10-22T07:40:52.972Z,98074.00
2022-10-22T07:43:28.060Z,98070.00
2022-10-22T07:46:03.047Z,98073.00
2022-10-22T07:48:38.082Z,98080.00
2022-10-22T07:51:13.696Z,98087.00
2022-10-22T07:53:48.732Z,98089.00
2022-10-22T07:56:23.660Z,98085.00
2022-10-22T07:58:58.564Z,98087.00
2022-10-22T08:01:33.568Z,98084.00
2022-10-22T08:04:09.873Z,98092.00
2022-10-22T08:06:47.244Z,98092.00
2022-10-22T08:09:22.967Z,98089.00
2022-10-22T08:11:57.870Z,98093.00
2022-10-22T08:14:32.954Z,98095.00
2022-10-22T08:17:07.914Z,98103.00
2022-10-22T08:19:42.848Z,98102.00
2022-10-22T08:22:17.819Z,98102.00
2022-10-22T08:24:53.537Z,98103.00
2022-10-22T08:27:28.507Z,98100.00
2022-10-22T08:30:06.603Z,98107.00
2022-10-22T08:32:41.984Z,98111.00
2022-10-22T08:35:17.780Z,98100.00
2022-10-22T08:37:52.809Z,98107.00
2022-10-22T08:40:34.868Z,98100.00
2022-10-22T08:44:09.652Z,98102.00
2022-10-22T08:47:41.842Z,98105.00
2022-10-22T08:50:30.628Z,98105.00
2022-10-22T08:53:17.133Z,98103.00
2022-10-22T08:55:54.223Z,98108.00
2022-10-22T08:58:40.827Z,98113.00
2022-10-22T09:01:27.936Z,98106.00
2022-10-22T09:04:30.607Z,98110.00
2022-10-22T09:07:05.465Z,98100.00
2022-10-22T09:09:47.753Z,98114.00
2022-10-22T09:12:24.858Z,98114.00
2022-10-22T09:14:59.817Z,98113.00
2022-10-22T09:18:05.655Z,98105.00
2022-10-22T09:20:59.992Z,98114.00
2022-10-22T09:24:12.530Z,98112.00
2022-10-22T09:26:47.557Z,98113.00
2022-10-22T09:29:34.646Z,98120.00
2022-10-22T09:32:11.985Z,98111.00
2022-10-22T09:34:48.933Z,98121.00
2022-10-22T09:37:29.191Z,98119.00
2022-10-22T09:40:06.351Z,98117.00
2022-10-22T09:42:41.439Z,98116.00
2022-10-22T09:45:25.183Z,98120.00
2022-10-22T09:48:34.669Z,98127.00
2022-10-22T09:51:22.709Z,98127.00
2022-10-22T09:54:01.621Z,98133.00
2022-10-22T09:56:43.477Z,98140.00
2022-10-22T09:59:37.592Z,98142.00
2022-10-22T10:02:20.299Z,98145.00
2022-10-22T10:05:04.358Z,98145.00
2022-10-22T10:07:39.695Z,98143.00
2022-10-22T10:10:45.090Z,98151.00
2022-10-22T10:13:57.041Z,98156.00
2022-10-22T10:17:03.428Z,98163.00
2022-10-22T10:19:53.752Z,98162.00
2022-10-22T10:22:56.449Z,98157.00
2022-10-22T10:25:43.155Z,98166.00
2022-10-22T10:28:59.091Z,98166.00
2022-10-22T10:32:15.182Z,98168.00
2022-10-22T10:35:28.872Z,98181.00
2022-10-22T10:38:44.919Z,98170.00
2022-10-22T10:41:51.766Z,98168.00
2022-10-22T10:45:02.843Z,98177.00
2022-10-22T10:47:57.418Z,98178.00
2022-10-22T10:51:09.013Z,98184.00
2022-10-22T10:54:32.041Z,98193.00
2022-10-22T10:57:46.999Z,98187.00
2022-10-22T11:00:22.881Z,98179.00
2022-10-22T11:03:35.101Z,98184.00
2022-10-22T11:06:16.052Z,98177.00
2022-10-22T11:08:59.409Z,98177.00
2022-10-22T11:11:48.975Z,98172.00
2022-10-22T11:14:39.513Z,98179.00
2022-10-22T11:17:18.771Z,98172.00
2022-10-22T11:20:05.154Z,98174.00
2022-10-22T11:23:18.098Z,98178.00
2022-10-22T11:25:51.386Z,98172.00
2022-10-22T11:28:38.494Z,98169.00
2022-10-22T11:31:18.377Z,98173.00
2022-10-22T11:34:32.672Z,98172.00
2022-10-22T11:37:11.571Z,98170.00
2022-10-22T11:39:53.704Z,98174.00
2022-10-22T11:42:46.657Z,98171.00
2022-10-22T11:45:24.667Z,98166.00
2022-10-22T11:48:18.955Z,98159.00
2022-10-22T11:51:01.942Z,98162.00
2022-10-22T11:53:39.208Z,98164.00
2022-10-22T11:56:26.377Z,98157.00
2022-10-22T11:59:01.306Z,98159.00
2022-10-22T12:01:45.096Z,98160.00
2022-10-22T12:04:23.263Z,98164.00
2022-10-22T12:07:03.656Z,98159.00
2022-10-22T12:09:41.023Z,98166.00
2022-10-22T12:12:16.389Z,98169.00
2022-10-22T12:14:55.073Z,98165.00
2022-10-22T12:17:31.728Z,98167.00
2022-10-22T12:20:14.318Z,98162.00
2022-10-22T12:22:49.358Z,98166.00
2022-10-22T12:25:35.451Z,98156.00
2022-10-22T12:28:13.958Z,98155.00
2022-10-22T12:30:48.914Z,98152.00
2022-10-22T12:33:25.570Z,98156.00
2022-10-22T12:36:04.093Z,98147.00
2022-10-22T12:38:41.230Z,98136.00
2022-10-22T12:41:16.182Z,98140.00
2022-10-22T12:43:59.801Z,98139.00
2022-10-22T12:46:36.018Z,98134.00
2022-10-22T12:49:34.517Z,98133.00
2022-10-22T12:52:17.694Z,98145.00
2022-10-22T12:54:53.536Z,98144.00
2022-10-22T12:57:28.567Z,98138.00
2022-10-22T13:00:04.967Z,98146.00
2022-10-22T13:02:43.438Z,98133.00
2022-10-22T13:05:27.947Z,98140.00
2022-10-22T13:08:16.384Z,98138.00
2022-10-22T13:10:54.616Z,98138.00
2022-10-22T13:13:45.717Z,98132.00
2022-10-22T13:16:26.214Z,98142.00
2022-10-22T13:19:01.341Z,98144.00
2022-10-22T13:21:39.497Z,98139.00
2022-10-22T13:24:22.597Z,98135.00
2022-10-22T13:26:57.809Z,98133.00
2022-10-22T13:29:32.882Z,98137.00
2022-10-22T13:32:31.882Z,98133.00
2022-10-22T13:35:06.990Z,98125.00
2022-10-22T13:37:42.234Z,98132.00
2022-10-22T13:40:18.192Z,98126.00
2022-10-22T13:42:53.435Z,98126.00
2022-10-22T13:45:28.393Z,98131.00
2022-10-22T13:48:05.471Z,98131.00
2022-10-22T13:50:40.476Z,98133.00
2022-10-22T13:53:23.388Z,98133.00
2022-10-22T13:55:58.403Z,98132.00
2022-10-22T13:58:33.367Z,98124.00
2022-10-22T14:01:26.094Z,98127.00
2022-10-22T14:04:04.229Z,98127.00
2022-10-22T14:06:39.199Z,98129.00
2022-10-22T14:09:16.055Z,98126.00
2022-10-22T14:11:50.993Z,98127.00
2022-10-22T14:14:25.966Z,98129.00
2022-10-22T14:17:01.608Z,98129.00
2022-10-22T14:19:36.546Z,98123.00
2022-10-22T14:22:21.493Z,98128.00
2022-10-22T14:24:56.497Z,98137.00
2022-10-22T14:27:31.460Z,98134.00
2022-10-22T14:30:07.425Z,98136.00
2022-10-22T14:32:42.783Z,98136.00
2022-10-22T14:35:21.986Z,98135.00
2022-10-22T14:37:58.352Z,98132.00
2022-10-22T14:40:33.561Z,98133.00
2022-10-22T14:43:12.982Z,98132.00
2022-10-22T14:45:48.135Z,98126.00
2022-10-22T14:48:24.016Z,98130.00
2022-10-22T14:50:58.896Z,98133.00
2022-10-22T14:53:33.835Z,98137.00
2022-10-22T14:56:18.626Z,98136.00
2022-10-22T14:58:53.755Z,98131.00
2022-10-22T15:01:28.672Z,98135.00
2022-10-22T15:04:03.612Z,98141.00
2022-10-22T15:06:38.530Z,98134.00
2022-10-22T15:09:13.574Z,98139.00
2022-10-22T15:11:48.596Z,98143.00
2022-10-22T15:14:23.729Z,98144.00
2022-10-22T15:16:59.977Z,98156.00
2022-10-22T15:19:35.029Z,98154.00
2022-10-22T15:22:11.500Z,98149.00
2022-10-22T15:24:46.476Z,98146.00
2022-10-22T15:27:21.518Z,98154.00
2022-10-22T15:29:58.836Z,98148.00
2022-10-22T15:32:34.143Z,98149.00
2022-10-22T15:35:09.307Z,98149.00
2022-10-22T15:37:44.274Z,98146.00
2022-10-22T15:40:19.172Z,98151.00
2022-10-22T15:42:54.178Z,98145.00
2022-10-22T15:45:29.347Z,98144.00
2022-10-22T15:48:05.035Z,98145.00
2022-10-22T15:50:40.236Z,98141.00
2022-10-22T15:53:15.203Z,98143.00
2022-10-22T15:55:50.153Z,98145.00
2022-10-22T15:58:25.059Z,98146.00
2022-10-22T16:01:13.062Z,98151.00
2022-10-22T16:03:48.128Z,98149.00
2022-10-22T16:06:23.057Z,98151.00
2022-10-22T16:09:01.333Z,98148.00
2022-10-22T16:11:37.486Z,98156.00
2022-10-22T16:14:17.202Z,98150.00
2022-10-22T16:16:55.604Z,98154.00
2022-10-22T16:19:30.534Z,98153.00
2022-10-22T16:22:05.462Z,98156.00
2022-10-22T16:24:40.949Z,98154.00
2022-10-22T16:27:15.942Z,98158.00
2022-10-22T16:29:50.906Z,98157.00
2022-10-22T16:32:25.848Z,98153.00
2022-10-22T16:35:00.787Z,98149.00
2022-10-22T16:37:35.773Z,98151.00
2022-10-22T16:40:11.920Z,98162.00
2022-10-22T16:42:47.053Z,98156.00
2022-10-22T16:45:22.025Z,98159.00
2022-10-22T16:47:56.961Z,98166.00
2022-10-22T16:50:31.900Z,98170.00
2022-10-22T16:53:06.774Z,98174.00
2022-10-22T16:55:41.773Z,98174.00
2022-10-22T16:58:16.661Z,98172.00
2022-10-22T17:00:51.690Z,98170.00
2022-10-22T17:03:28.351Z,98180.00
2022-10-22T17:06:04.923Z,98182.00
2022-10-22T17:08:41.089Z,98168.00
2022-10-22T17:11:19.870Z,98173.00
2022-10-22T17:13:55.066Z,98175.00
2022-10-22T17:16:30.352Z,98178.00
2022-10-22T17:19:05.387Z,98178.00
2022-10-22T17:21:40.444Z,98172.00
2022-10-22T17:24:15.633Z,98181.00
2022-10-22T17:26:50.585Z,98177.00
2022-10-22T17:29:25.548Z,98179.00
2022-10-22T17:32:01.436Z,98190.00
2022-10-22T17:34:36.396Z,98194.00
2022-10-22T17:37:11.604Z,98187.00
2022-10-22T17:39:46.653Z,98199.00
2022-10-22T17:42:22.445Z,98194.00
2022-10-22T17:44:57.913Z,98198.00
2022-10-22T17:47:32.968Z,98200.00
2022-10-22T17:50:08.864Z,98198.00
2022-10-22T17:52:44.072Z,98213.00
2022-10-22T17:55:19.315Z,98214.00
2022-10-22T17:57:54.225Z,98213.00
2022-10-22T18:00:32.305Z,98216.00
2022-10-22T18:03:07.366Z,98210.00
2022-10-22T18:05:42.342Z,98213.00
2022-10-22T18:08:17.254Z,98212.00
2022-10-22T18:10:52.226Z,98214.00
2022-10-22T18:13:27.150Z,98214.00
2022-10-22T18:16:02.517Z,98213.00
2022-10-22T18:18:37.561Z,98205.00
2022-10-22T18:21:12.477Z,98203.00
2022-10-22T18:23:47.437Z,98206.00
2022-10-22T18:26:25.951Z,98200.00
2022-10-22T18:29:02.048Z,98207.00
2022-10-22T18:31:37.066Z,98209.00
2022-10-22T18:34:12.341Z,98207.00
2022-10-22T18:36:47.290Z,98196.00
2022-10-22T18:39:22.187Z,98202.00
2022-10-22T18:41:57.155Z,98197.00
2022-10-22T18:44:33.857Z,98199.00
2022-10-22T18:47:08.781Z,98197.00
2022-10-22T18:49:43.779Z,98199.00
2022-10-22T18:52:18.674Z,98199.00
2022-10-22T18:54:53.644Z,98200.00
2022-10-22T18:57:28.623Z,98208.00
2022-10-22T19:00:05.100Z,98199.00
2022-10-22T19:02:40.414Z,98194.00
2022-10-22T19:05:15.521Z,98200.00
2022-10-22T19:07:50.833Z,98194.00
2022-10-22T19:10:25.788Z,98195.00
2022-10-22T19:13:00.800Z,98184.00
2022-10-22T19:15:35.824Z,98198.00
2022-10-22T19:18:11.098Z,98195.00
2022-10-22T19:20:48.990Z,98193.00
2022-10-22T19:23:23.986Z,98198.00
2022-10-22T19:26:04.651Z,98202.00
2022-10-22T19:28:41.234Z,98204.00
2022-10-22T19:31:21.830Z,98205.00
2022-10-22T19:33:59.288Z,98212.00
2022-10-22T19:36:35.309Z,98206.00
2022-10-22T19:39:10.573Z,98202.00
2022-10-22T19:41:45.787Z,98199.00
2022-10-22T19:44:20.986Z,98198.00
2022-10-22T19:46:55.935Z,98197.00
2022-10-22T19:49:31.030Z,98194.00
2022-10-22T19:52:05.968Z,98191.00
2022-10-22T19:54:41.881Z,98194.00
2022-10-22T19:57:18.627Z,98190.00
2022-10-22T19:59:53.630Z,98193.00
2022-10-22T20:02:28.527Z,98196.00
2022-10-22T20:05:03.891Z,98192.00
2022-10-22T20:07:39.070Z,98200.00
2022-10-22T20:10:14.863Z,98201.00
2022-10-22T20:12:50.106Z,98200.00
2022-10-22T20:15:25.473Z,98202.00
2022-10-22T20:18:00.851Z,98200.00
2022-10-22T20:20:38.377Z,98212.00
2022-10-22T20:23:13.306Z,98212.00
2022-10-22T20:25:48.716Z,98206.00
2022-10-22T20:28:23.667Z,98201.00
2022-10-22T20:30:58.573Z,98202.00
2022-10-22T20:33:33.548Z,98200.00
2022-10-22T20:36:14.143Z,98201.00
2022-10-22T20:38:50.679Z,98211.00
2022-10-22T20:41:25.682Z,98211.00
2022-10-22T20:44:01.171Z,98213.00
2022-10-22T20:46:36.124Z,98213.00
2022-10-22T20:49:15.161Z,98212.00
2022-10-22T20:51:50.104Z,98216.00
2022-10-22T20:54:25.079Z,98219.00
2022-10-22T20:56:59.993Z,98221.00
2022-10-22T20:59:35.374Z,98216.00
2022-10-22T21:02:11.027Z,98210.00
2022-10-22T21:04:46.514Z,98200.00
2022-10-22T21:07:22.551Z,98208.00
2022-10-22T21:09:57.418Z,98206.00
2022-10-22T21:12:32.383Z,98203.00
2022-10-22T21:15:11.763Z,98204.00
2022-10-22T21:17:47.663Z,98205.00
2022-10-22T21:20:24.749Z,98196.00
2022-10-22T21:22:59.953Z,98193.00
2022-10-22T21:25:38.465Z,98197.00
2022-10-22T21:28:16.923Z,98193.00
2022-10-22T21:30:51.857Z,98190.00
2022-10-22T21:33:26.769Z,98194.00
2022-10-22T21:36:01.710Z,98201.00
2022-10-22T21:38:37.769Z,98208.00
2022-10-22T21:41:16.235Z,98205.00
2022-10-22T21:43:51.823Z,98193.00
2022-10-22T21:46:28.473Z,98196.00
2022-10-22T21:49:04.436Z,98203.00
2022-10-22T21:51:39.336Z,98208.00
2022-10-22T21:54:14.254Z,98200.00
2022-10-22T21:56:50.118Z,98202.00
2022-10-22T21:59:25.054Z,98199.00
2022-10-22T22:02:04.773Z,98194.00
2022-10-22T22:04:40.799Z,98194.00
2022-10-22T22:07:15.707Z,98193.00
2022-10-22T22:09:51.220Z,98192.00
2022-10-22T22:12:26.116Z,98187.00
2022-10-22T22:15:01.026Z,98185.00
2022-10-22T22:17:36.860Z,98188.00
2022-10-22T22:20:11.887Z,98190.00
2022-10-22T22:22:46.739Z,98186.00
2022-10-22T22:25:21.753Z,98195.00
2022-10-22T22:27:56.609Z,98192.00
2022-10-22T22:30:31.479Z,98194.00
2022-10-22T22:33:06.481Z,98197.00
2022-10-22T22:35:41.375Z,98194.00
2022-10-22T22:38:16.386Z,98210.00
2022-10-22T22:40:51.257Z,98201.00
2022-10-22T22:43:26.258Z,98191.00
2022-10-22T22:46:07.458Z,98197.00
2022-10-22T22:48:42.327Z,98201.00
2022-10-22T22:51:17.752Z,98198.00
2022-10-22T22:53:52.839Z,98193.00
2022-10-22T22:56:32.417Z,98184.00
2022-10-22T22:59:07.261Z,98187.00
2022-10-22T23:01:42.612Z,98184.00
2022-10-22T23:04:22.891Z,98186.00
2022-10-22T23:06:57.814Z,98175.00
2022-10-22T23:09:32.701Z,98178.00
2022-10-22T23:12:07.742Z,98174.00
2022-10-22T23:14:42.591Z,98183.00
2022-10-22T23:17:19.327Z,98172.00
2022-10-22T23:19:54.249Z,98170.00
2022-10-22T23:22:29.298Z,98172.00
2022-10-22T23:25:04.433Z,98163.00
2022-10-22T23:27:39.412Z,98158.00
2022-10-22T23:30:14.667Z,98159.00
2022-10-22T23:32:49.578Z,98159.00
2022-10-22T23:35:24.502Z,98163.00
2022-10-22T23:37:59.402Z,98169.00
2022-10-22T23:40:34.667Z,98167.00
2022-10-22T23:43:09.557Z,98169.00
2022-10-22T23:45:44.516Z,98161.00
2022-10-22T23:48:20.486Z,98155.00
2022-10-22T23:50:55.420Z,98151.00
2022-10-22T23:53:31.317Z,98157.00
2022-10-22T23:56:09.581Z,98151.00
2022-10-22T23:58:45.234Z,98148.00
